createdAt,value
2019-02-06T00:01:41.049Z,87.60
2019-02-06T00:04:09.778Z,87.20
2019-02-06T00:06:38.582Z,87.20
2019-02-06T00:09:12.954Z,87.20
2019-02-06T00:11:41.892Z,87.20
2019-02-06T00:14:10.693Z,87.00
2019-02-06T00:16:39.681Z,87.30
2019-02-06T00:19:08.562Z,87.00
2019-02-06T00:21:37.582Z,87.00
2019-02-06T00:24:06.346Z,86.80
2019-02-06T00:26:35.007Z,86.70
2019-02-06T00:29:03.922Z,86.60
2019-02-06T00:31:32.815Z,86.80
2019-02-06T00:34:01.479Z,86.60
2019-02-06T00:36:30.407Z,86.40
2019-02-06T00:38:59.095Z,86.50
2019-02-06T00:41:28.914Z,86.60
2019-02-06T00:43:57.636Z,86.60
2019-02-06T00:46:26.400Z,86.40
2019-02-06T00:48:55.342Z,86.20
2019-02-06T00:51:23.997Z,86.40
2019-02-06T00:53:52.700Z,86.30
2019-02-06T00:56:21.699Z,86.10
2019-02-06T00:58:50.363Z,86.20
2019-02-06T01:01:19.413Z,86.40
2019-02-06T01:03:48.096Z,86.50
2019-02-06T01:06:16.879Z,86.30
2019-02-06T01:08:46.110Z,86.10
2019-02-06T01:11:14.963Z,86.20
2019-02-06T01:13:43.619Z,86.00
2019-02-06T01:16:12.493Z,86.10
2019-02-06T01:18:41.568Z,86.50
2019-02-06T01:21:10.422Z,86.20
2019-02-06T01:23:39.270Z,86.70
2019-02-06T01:26:07.967Z,86.30
2019-02-06T01:28:36.881Z,85.90
2019-02-06T01:31:13.839Z,85.80
2019-02-06T01:33:42.730Z,85.70
2019-02-06T01:36:11.410Z,85.60
2019-02-06T01:38:40.350Z,85.20
2019-02-06T01:41:09.401Z,85.60
2019-02-06T01:43:38.317Z,85.40
2019-02-06T01:46:07.194Z,85.30
2019-02-06T01:48:35.897Z,85.30
2019-02-06T01:51:04.637Z,85.30
2019-02-06T01:53:33.422Z,84.90
2019-02-06T01:56:02.478Z,84.70
2019-02-06T01:58:31.397Z,84.90
2019-02-06T02:01:00.829Z,84.70
2019-02-06T02:03:29.780Z,84.80
2019-02-06T02:06:02.206Z,85.00
2019-02-06T02:08:31.691Z,85.00
2019-02-06T02:11:00.707Z,85.30
2019-02-06T02:13:29.883Z,85.00
2019-02-06T02:15:58.566Z,85.30
2019-02-06T02:18:27.253Z,85.10
2019-02-06T02:20:55.994Z,85.60
2019-02-06T02:23:24.839Z,85.20
2019-02-06T02:25:53.495Z,85.40
2019-02-06T02:28:22.448Z,86.40
2019-02-06T02:30:54.142Z,85.50
2019-02-06T02:33:23.146Z,86.20
2019-02-06T02:35:51.881Z,85.50
2019-02-06T02:38:20.652Z,85.40
2019-02-06T02:40:49.729Z,85.50
2019-02-06T02:43:18.551Z,84.40
2019-02-06T02:45:47.520Z,84.00
2019-02-06T02:48:16.253Z,83.90
2019-02-06T02:50:44.929Z,83.60
2019-02-06T02:53:13.759Z,83.30
2019-02-06T02:55:42.974Z,83.00
2019-02-06T02:58:11.662Z,82.90
2019-02-06T03:01:02.643Z,82.80
2019-02-06T03:03:45.062Z,82.40
2019-02-06T03:06:14.006Z,82.00
2019-02-06T03:08:42.671Z,82.10
2019-02-06T03:11:11.464Z,82.00
2019-02-06T03:13:40.378Z,81.70
2019-02-06T03:16:10.198Z,81.50
2019-02-06T03:18:39.089Z,81.80
2019-02-06T03:21:08.316Z,81.70
2019-02-06T03:23:37.254Z,81.70
2019-02-06T03:26:05.988Z,81.50
2019-02-06T03:28:35.186Z,81.70
2019-02-06T03:31:04.236Z,82.40
2019-02-06T03:33:32.888Z,81.70
2019-02-06T03:36:02.028Z,81.70
2019-02-06T03:38:30.811Z,82.00
2019-02-06T03:40:59.566Z,81.70
2019-02-06T03:43:28.245Z,81.80
2019-02-06T03:45:56.897Z,81.70
2019-02-06T03:48:25.551Z,81.90
2019-02-06T03:50:54.387Z,82.40
2019-02-06T03:53:23.321Z,82.30
2019-02-06T03:55:52.486Z,82.60
2019-02-06T03:58:21.189Z,82.80
2019-02-06T04:00:49.872Z,82.90
2019-02-06T04:03:18.617Z,83.30
2019-02-06T04:05:47.399Z,83.40
2019-02-06T04:08:16.139Z,83.70
2019-02-06T04:10:44.905Z,84.70
2019-02-06T04:13:13.975Z,84.30
2019-02-06T04:15:43.114Z,84.60
2019-02-06T04:18:12.138Z,85.30
2019-02-06T04:20:40.868Z,86.10
2019-02-06T04:23:09.847Z,87.00
2019-02-06T04:25:38.590Z,87.90
2019-02-06T04:28:07.553Z,88.40
2019-02-06T04:30:36.451Z,88.70
2019-02-06T04:33:05.187Z,89.00
2019-02-06T04:35:33.955Z,89.40
2019-02-06T04:38:02.602Z,89.80
2019-02-06T04:40:31.654Z,90.10
2019-02-06T04:43:00.330Z,90.40
2019-02-06T04:45:28.992Z,90.60
2019-02-06T04:47:57.763Z,90.80
2019-02-06T04:50:26.770Z,90.90
2019-02-06T04:52:55.517Z,91.00
2019-02-06T04:55:24.566Z,91.10
2019-02-06T04:57:54.343Z,91.20
2019-02-06T05:00:27.475Z,91.40
2019-02-06T05:02:56.222Z,91.60
2019-02-06T05:05:25.058Z,91.80
2019-02-06T05:07:53.870Z,91.90
2019-02-06T05:10:22.706Z,92.00
2019-02-06T05:12:51.713Z,92.10
2019-02-06T05:15:20.556Z,92.60
2019-02-06T05:17:49.393Z,93.00
2019-02-06T05:20:26.111Z,92.80
2019-02-06T05:22:55.061Z,93.00
2019-02-06T05:25:24.076Z,93.40
2019-02-06T05:27:53.041Z,93.80
2019-02-06T05:30:21.960Z,93.60
2019-02-06T05:32:50.933Z,93.90
2019-02-06T05:35:19.702Z,94.00
2019-02-06T05:37:48.697Z,94.00
2019-02-06T05:40:17.678Z,94.20
2019-02-06T05:42:46.775Z,94.00
2019-02-06T05:45:15.620Z,94.10
2019-02-06T05:47:44.355Z,94.20
2019-02-06T05:50:13.535Z,94.10
2019-02-06T05:52:42.366Z,94.30
2019-02-06T05:55:11.677Z,94.20
2019-02-06T05:57:40.447Z,94.30
2019-02-06T06:00:13.953Z,94.20
2019-02-06T06:02:43.254Z,94.20
2019-02-06T06:05:12.306Z,94.40
2019-02-06T06:07:45.395Z,94.60
2019-02-06T06:10:13.576Z,94.90
2019-02-06T06:12:42.800Z,95.10
2019-02-06T06:15:13.172Z,95.20
2019-02-06T06:17:41.870Z,95.30
2019-02-06T06:20:11.155Z,95.30
2019-02-06T06:22:41.201Z,95.40
2019-02-06T06:25:11.467Z,95.50
2019-02-06T06:27:40.169Z,95.60
2019-02-06T06:30:13.577Z,95.70
2019-02-06T06:32:42.643Z,95.70
2019-02-06T06:35:11.598Z,95.80
2019-02-06T06:37:41.599Z,95.70
2019-02-06T06:40:13.467Z,95.70
2019-02-06T06:42:42.572Z,95.80
2019-02-06T06:45:13.107Z,95.80
2019-02-06T06:47:42.216Z,95.80
2019-02-06T06:50:13.742Z,95.90
2019-02-06T06:52:42.465Z,96.00
2019-02-06T06:55:12.063Z,95.90
2019-02-06T06:57:44.233Z,95.90
2019-02-06T07:00:22.036Z,95.90
2019-02-06T07:02:51.088Z,96.10
2019-02-06T07:05:19.967Z,95.60
2019-02-06T07:07:49.038Z,95.40
2019-02-06T07:10:18.145Z,95.00
2019-02-06T07:12:46.858Z,94.20
2019-02-06T07:15:18.208Z,93.90
2019-02-06T07:17:47.053Z,93.30
2019-02-06T07:20:16.917Z,93.00
2019-02-06T07:22:45.835Z,92.30
2019-02-06T07:25:16.067Z,91.20
2019-02-06T07:27:44.806Z,90.60
2019-02-06T07:30:19.933Z,89.80
2019-02-06T07:32:48.968Z,88.70
2019-02-06T07:35:17.731Z,88.10
2019-02-06T07:37:46.476Z,87.10
2019-02-06T07:40:15.791Z,87.50
2019-02-06T07:42:44.493Z,88.80
2019-02-06T07:45:13.572Z,89.50
2019-02-06T07:47:42.567Z,90.10
2019-02-06T07:50:17.149Z,90.10
2019-02-06T07:52:45.991Z,90.10
2019-02-06T07:55:16.809Z,88.50
2019-02-06T07:57:45.699Z,87.50
2019-02-06T08:00:15.410Z,85.60
2019-02-06T08:02:44.342Z,83.90
2019-02-06T08:05:14.789Z,81.20
2019-02-06T08:07:43.602Z,77.00
2019-02-06T08:10:15.890Z,75.20
2019-02-06T08:12:44.726Z,71.30
2019-02-06T08:15:14.248Z,70.10
2019-02-06T08:17:43.365Z,69.40
2019-02-06T08:20:14.132Z,69.00
2019-02-06T08:22:42.962Z,68.20
2019-02-06T08:25:12.938Z,69.20
2019-02-06T08:27:42.358Z,70.00
2019-02-06T08:30:22.714Z,70.80
2019-02-06T08:32:51.655Z,72.20
2019-02-06T08:35:20.745Z,72.00
2019-02-06T08:37:53.040Z,71.40
2019-02-06T08:40:23.138Z,71.70
2019-02-06T08:42:52.645Z,70.90
2019-02-06T08:45:21.754Z,67.70
2019-02-06T08:47:51.183Z,65.90
2019-02-06T08:50:20.022Z,64.50
2019-02-06T08:52:49.046Z,63.00
2019-02-06T08:55:20.220Z,62.50
2019-02-06T08:57:49.252Z,61.80
2019-02-06T09:00:22.695Z,58.90
2019-02-06T09:02:51.554Z,58.10
2019-02-06T09:05:20.301Z,56.70
2019-02-06T09:07:49.470Z,56.40
2019-02-06T09:10:20.859Z,55.40
2019-02-06T09:12:49.702Z,55.00
2019-02-06T09:15:18.584Z,53.30
2019-02-06T09:17:47.337Z,53.00
2019-02-06T09:20:19.519Z,51.10
2019-02-06T09:22:48.201Z,49.20
2019-02-06T09:25:18.486Z,49.20
2019-02-06T09:27:47.575Z,49.10
2019-02-06T09:30:23.186Z,49.10
2019-02-06T09:32:51.990Z,49.10
2019-02-06T09:35:21.084Z,50.10
2019-02-06T09:37:49.815Z,50.30
2019-02-06T09:40:20.258Z,49.90
2019-02-06T09:42:49.198Z,50.00
2019-02-06T09:45:18.332Z,51.30
2019-02-06T09:47:47.186Z,51.70
2019-02-06T09:50:21.455Z,53.30
2019-02-06T09:52:50.501Z,51.50
2019-02-06T09:55:19.483Z,49.70
2019-02-06T09:57:48.521Z,49.60
2019-02-06T10:00:20.095Z,50.60
2019-02-06T10:02:49.207Z,52.90
2019-02-06T10:05:18.566Z,55.60
2019-02-06T10:07:47.314Z,59.30
2019-02-06T10:10:20.714Z,60.20
2019-02-06T10:12:49.938Z,63.20
2019-02-06T10:15:21.194Z,66.10
2019-02-06T10:17:50.127Z,68.60
2019-02-06T10:20:20.422Z,69.60
2019-02-06T10:22:49.512Z,68.70
2019-02-06T10:25:18.669Z,68.90
2019-02-06T10:27:47.458Z,67.10
2019-02-06T10:30:30.698Z,66.80
2019-02-06T10:33:00.150Z,66.80
2019-02-06T10:35:28.982Z,66.50
2019-02-06T10:37:58.064Z,66.30
2019-02-06T10:40:28.921Z,63.50
2019-02-06T10:42:58.059Z,61.20
2019-02-06T10:45:27.000Z,59.20
2019-02-06T10:47:56.094Z,58.70
2019-02-06T10:50:26.321Z,57.90
2019-02-06T10:52:57.649Z,56.30
2019-02-06T10:55:26.673Z,55.30
2019-02-06T10:57:55.351Z,56.60
2019-02-06T11:00:33.896Z,57.50
2019-02-06T11:03:03.117Z,58.50
2019-02-06T11:05:31.885Z,58.60
2019-02-06T11:08:01.438Z,61.20
2019-02-06T11:10:32.697Z,63.50
2019-02-06T11:13:01.426Z,65.30
2019-02-06T11:15:31.514Z,65.70
2019-02-06T11:18:03.625Z,66.40
2019-02-06T11:20:33.530Z,66.20
2019-02-06T11:23:02.274Z,66.60
2019-02-06T11:25:30.942Z,67.00
2019-02-06T11:27:59.779Z,67.10
2019-02-06T11:30:29.050Z,66.80
2019-02-06T11:32:57.866Z,66.80
2019-02-06T11:35:27.779Z,66.50
2019-02-06T11:37:56.900Z,66.50
2019-02-06T11:40:25.679Z,66.60
2019-02-06T11:42:54.575Z,66.00
2019-02-06T11:45:26.309Z,65.50
2019-02-06T11:47:55.012Z,64.60
2019-02-06T11:50:30.670Z,64.60
2019-02-06T11:52:59.421Z,65.10
2019-02-06T11:55:28.330Z,65.90
2019-02-06T11:57:57.116Z,66.30
2019-02-06T12:00:36.196Z,67.00
2019-02-06T12:03:05.229Z,66.80
2019-02-06T12:05:34.487Z,66.70
2019-02-06T12:08:03.532Z,66.80
2019-02-06T12:10:32.323Z,67.80
2019-02-06T12:13:01.186Z,68.20
2019-02-06T12:15:30.288Z,68.00
2019-02-06T12:17:59.250Z,68.80
2019-02-06T12:20:28.041Z,68.80
2019-02-06T12:22:56.740Z,68.90
2019-02-06T12:25:25.739Z,68.50
2019-02-06T12:27:55.395Z,68.10
2019-02-06T12:30:29.472Z,68.50
2019-02-06T12:32:58.215Z,68.20
2019-02-06T12:35:27.200Z,68.70
2019-02-06T12:37:56.264Z,68.40
2019-02-06T12:40:25.152Z,69.00
2019-02-06T12:42:54.032Z,69.10
2019-02-06T12:45:23.162Z,69.30
2019-02-06T12:47:52.564Z,69.40
2019-02-06T12:50:21.917Z,70.30
2019-02-06T12:52:50.998Z,70.90
2019-02-06T12:55:23.280Z,71.10
2019-02-06T12:57:52.109Z,71.70
2019-02-06T13:00:23.179Z,71.30
2019-02-06T13:02:55.790Z,71.00
2019-02-06T13:05:23.628Z,71.10
2019-02-06T13:07:52.610Z,71.40
2019-02-06T13:10:32.870Z,71.50
2019-02-06T13:12:52.066Z,71.70
2019-02-06T13:15:20.826Z,72.20
2019-02-06T13:17:49.907Z,71.80
2019-02-06T13:20:21.206Z,72.10
2019-02-06T13:22:50.482Z,71.90
2019-02-06T13:25:19.295Z,71.70
2019-02-06T13:27:47.986Z,72.00
2019-02-06T13:30:25.239Z,71.80
2019-02-06T13:32:54.261Z,71.40
2019-02-06T13:35:22.946Z,71.80
2019-02-06T13:37:51.669Z,72.10
2019-02-06T13:40:21.826Z,71.90
2019-02-06T13:42:51.143Z,72.10
2019-02-06T13:45:25.061Z,71.70
2019-02-06T13:47:53.849Z,72.50
2019-02-06T13:50:23.023Z,72.70
2019-02-06T13:52:51.714Z,72.70
2019-02-06T13:55:21.197Z,72.90
2019-02-06T13:57:49.930Z,73.20
2019-02-06T14:00:34.123Z,73.20
2019-02-06T14:03:02.864Z,73.50
2019-02-06T14:05:32.994Z,74.20
2019-02-06T14:08:04.534Z,74.70
2019-02-06T14:10:34.113Z,74.60
2019-02-06T14:13:03.322Z,74.60
2019-02-06T14:15:34.488Z,74.80
2019-02-06T14:18:03.174Z,75.00
2019-02-06T14:20:31.993Z,75.40
2019-02-06T14:23:07.062Z,76.20
2019-02-06T14:25:51.935Z,76.70
2019-02-06T14:28:47.415Z,77.30
2019-02-06T14:31:53.058Z,77.90
2019-02-06T14:34:46.382Z,78.30
2019-02-06T14:37:56.247Z,78.30
2019-02-06T14:41:07.949Z,78.40
2019-02-06T14:43:43.433Z,79.30
2019-02-06T14:46:52.522Z,79.60
2019-02-06T14:49:35.721Z,79.60
2019-02-06T14:52:23.374Z,80.10
2019-02-06T14:55:20.417Z,80.50
2019-02-06T14:58:40.006Z,80.30
2019-02-06T15:01:26.241Z,80.60
2019-02-06T15:04:16.071Z,80.90
2019-02-06T15:07:23.178Z,80.80
2019-02-06T15:10:19.939Z,80.80
2019-02-06T15:13:29.635Z,80.90
2019-02-06T15:16:16.029Z,81.30
2019-02-06T15:19:19.238Z,81.10
2019-02-06T15:22:28.566Z,81.50
2019-02-06T15:25:21.940Z,81.70
2019-02-06T15:28:06.618Z,81.80
2019-02-06T15:30:55.091Z,81.80
2019-02-06T15:34:15.952Z,82.00
2019-02-06T15:37:27.201Z,82.20
2019-02-06T15:40:36.421Z,82.30
2019-02-06T15:43:31.134Z,82.40
2019-02-06T15:46:29.422Z,82.50
2019-02-06T15:49:31.708Z,82.60
2019-02-06T15:52:26.941Z,83.10
2019-02-06T15:55:26.118Z,83.40
2019-02-06T15:58:33.781Z,83.50
2019-02-06T16:01:22.574Z,84.00
2019-02-06T16:04:41.083Z,84.30
2019-02-06T16:07:45.975Z,84.40
2019-02-06T16:10:51.904Z,84.60
2019-02-06T16:13:42.767Z,84.80
2019-02-06T16:17:02.306Z,84.90
2019-02-06T16:20:05.717Z,84.90
2019-02-06T16:22:46.947Z,84.90
2019-02-06T16:25:32.691Z,84.80
2019-02-06T16:28:12.722Z,84.70
2019-02-06T16:31:08.154Z,84.80
2019-02-06T16:34:34.409Z,84.50
2019-02-06T16:37:22.562Z,84.80
2019-02-06T16:40:27.977Z,84.80
2019-02-06T16:43:35.126Z,84.80
2019-02-06T16:46:34.002Z,84.60
2019-02-06T16:49:39.935Z,84.70
2019-02-06T16:52:24.449Z,84.80
2019-02-06T16:55:21.959Z,84.80
2019-02-06T16:58:20.961Z,84.70
2019-02-06T17:01:42.980Z,84.60
2019-02-06T17:04:26.535Z,84.40
2019-02-06T17:07:42.062Z,84.10
2019-02-06T17:10:27.542Z,84.70
2019-02-06T17:13:21.573Z,84.30
2019-02-06T17:16:15.582Z,84.40
2019-02-06T17:19:10.212Z,84.30
2019-02-06T17:22:14.737Z,84.50
2019-02-06T17:25:08.518Z,84.50
2019-02-06T17:27:54.914Z,84.70
2019-02-06T17:30:53.645Z,84.40
2019-02-06T17:33:50.575Z,84.50
2019-02-06T17:36:44.920Z,85.00
2019-02-06T17:40:01.375Z,84.80
2019-02-06T17:43:07.086Z,84.50
2019-02-06T17:45:50.043Z,84.40
2019-02-06T17:48:54.851Z,84.50
2019-02-06T17:52:15.573Z,84.70
2019-02-06T17:55:03.154Z,84.80
2019-02-06T17:57:31.835Z,85.10
2019-02-06T18:00:00.879Z,85.00
2019-02-06T18:02:29.546Z,85.00
2019-02-06T18:04:58.523Z,84.80
2019-02-06T18:07:27.276Z,85.00
2019-02-06T18:09:56.120Z,84.60
2019-02-06T18:12:27.565Z,85.10
2019-02-06T18:14:55.547Z,84.70
2019-02-06T18:17:24.345Z,84.90
2019-02-06T18:19:53.047Z,84.70
2019-02-06T18:22:22.622Z,84.80
2019-02-06T18:24:51.507Z,84.40
2019-02-06T18:27:20.966Z,84.40
2019-02-06T18:29:49.869Z,84.50
2019-02-06T18:32:18.968Z,84.40
2019-02-06T18:34:47.798Z,84.00
2019-02-06T18:37:18.342Z,84.30
2019-02-06T18:40:02.161Z,83.50
2019-02-06T18:42:37.191Z,83.70
2019-02-06T18:45:03.277Z,83.30
2019-02-06T18:47:34.219Z,83.30
2019-02-06T18:50:03.453Z,82.90
2019-02-06T18:52:32.590Z,82.60
2019-02-06T18:55:01.866Z,82.90
2019-02-06T18:57:30.600Z,82.80
2019-02-06T18:59:59.359Z,82.90
2019-02-06T19:02:28.414Z,82.80
2019-02-06T19:04:57.432Z,82.50
2019-02-06T19:07:26.201Z,82.50
2019-02-06T19:09:54.963Z,82.90
2019-02-06T19:12:23.653Z,82.60
2019-02-06T19:14:52.758Z,82.60
2019-02-06T19:17:21.610Z,83.10
2019-02-06T19:19:50.423Z,82.20
2019-02-06T19:22:19.069Z,82.70
2019-02-06T19:24:48.405Z,83.10
2019-02-06T19:27:17.181Z,82.60
2019-02-06T19:29:46.097Z,82.30
2019-02-06T19:32:15.038Z,82.20
2019-02-06T19:34:43.770Z,82.70
2019-02-06T19:37:12.654Z,82.70
2019-02-06T19:39:41.603Z,83.20
2019-02-06T19:42:13.065Z,82.60
2019-02-06T19:44:41.776Z,82.90
2019-02-06T19:47:10.690Z,82.40
2019-02-06T19:49:39.458Z,81.70
2019-02-06T19:52:09.685Z,82.10
2019-02-06T19:54:38.574Z,81.80
2019-02-06T19:57:07.418Z,82.00
2019-02-06T19:59:36.691Z,82.10
2019-02-06T20:02:05.605Z,82.10
2019-02-06T20:04:34.406Z,82.50
2019-02-06T20:07:03.219Z,82.70
2019-02-06T20:09:32.126Z,82.70
2019-02-06T20:12:04.414Z,82.80
2019-02-06T20:14:33.130Z,83.20
2019-02-06T20:17:12.759Z,83.30
2019-02-06T20:19:41.487Z,83.60
2019-02-06T20:22:10.379Z,83.50
2019-02-06T20:24:39.214Z,83.60
2019-02-06T20:27:12.375Z,83.50
2019-02-06T20:29:41.203Z,83.70
2019-02-06T20:32:13.354Z,83.70
2019-02-06T20:34:42.109Z,84.00
2019-02-06T20:37:13.017Z,83.30
2019-02-06T20:39:41.850Z,83.50
2019-02-06T20:42:10.863Z,83.40
2019-02-06T20:44:39.670Z,83.40
2019-02-06T20:47:13.972Z,83.70
2019-02-06T20:49:42.741Z,83.70
2019-02-06T20:52:12.778Z,83.30
2019-02-06T20:54:41.554Z,83.50
2019-02-06T20:57:13.630Z,83.80
2019-02-06T20:59:41.498Z,83.70
2019-02-06T21:02:10.543Z,83.90
2019-02-06T21:04:39.267Z,83.50
2019-02-06T21:07:08.115Z,83.50
2019-02-06T21:09:36.862Z,83.20
2019-02-06T21:12:05.811Z,83.20
2019-02-06T21:14:34.626Z,83.30
2019-02-06T21:17:04.629Z,83.50
2019-02-06T21:19:33.993Z,83.40
2019-02-06T21:22:02.953Z,83.40
2019-02-06T21:24:31.878Z,83.60
2019-02-06T21:27:00.731Z,83.40
2019-02-06T21:29:29.444Z,83.00
2019-02-06T21:31:58.651Z,83.40
2019-02-06T21:34:27.642Z,83.20
2019-02-06T21:36:58.477Z,82.90
2019-02-06T21:39:27.218Z,83.10
2019-02-06T21:41:58.331Z,83.60
2019-02-06T21:44:27.201Z,83.40
2019-02-06T21:46:56.230Z,83.30
2019-02-06T21:49:28.104Z,83.30
2019-02-06T21:51:56.986Z,82.70
2019-02-06T21:54:25.923Z,82.90
2019-02-06T21:56:54.715Z,82.90
2019-02-06T21:59:24.065Z,83.20
2019-02-06T22:01:52.871Z,83.30
2019-02-06T22:04:21.949Z,82.80
2019-02-06T22:06:50.699Z,82.70
2019-02-06T22:09:19.978Z,82.80
2019-02-06T22:11:49.278Z,83.00
2019-02-06T22:14:18.100Z,82.70
2019-02-06T22:16:46.893Z,83.00
2019-02-06T22:19:16.331Z,83.20
2019-02-06T22:21:45.024Z,83.10
2019-02-06T22:24:13.781Z,83.00
2019-02-06T22:26:42.444Z,82.70
2019-02-06T22:29:11.437Z,82.30
2019-02-06T22:31:40.121Z,82.80
2019-02-06T22:34:08.909Z,82.60
2019-02-06T22:36:37.651Z,82.80
2019-02-06T22:39:11.360Z,82.90
2019-02-06T22:41:40.058Z,83.40
2019-02-06T22:44:08.938Z,82.70
2019-02-06T22:46:37.638Z,82.90
2019-02-06T22:49:06.286Z,83.10
2019-02-06T22:51:35.234Z,83.20
2019-02-06T22:54:04.323Z,83.10
2019-02-06T22:56:33.058Z,82.70
2019-02-06T22:59:01.946Z,82.70
2019-02-06T23:01:35.650Z,82.50
2019-02-06T23:04:05.594Z,81.30
2019-02-06T23:06:34.348Z,80.80
2019-02-06T23:09:05.221Z,81.00
2019-02-06T23:11:33.957Z,81.50
2019-02-06T23:14:02.686Z,80.60
2019-02-06T23:16:31.746Z,80.90
2019-02-06T23:19:00.595Z,80.80
2019-02-06T23:21:29.654Z,80.10
2019-02-06T23:23:58.622Z,80.20
2019-02-06T23:26:27.393Z,79.90
2019-02-06T23:28:56.145Z,80.40
2019-02-06T23:31:24.822Z,80.00
2019-02-06T23:33:53.901Z,79.90
2019-02-06T23:36:22.657Z,79.70
2019-02-06T23:38:51.651Z,80.00
2019-02-06T23:41:20.310Z,79.90
2019-02-06T23:43:49.023Z,79.70
2019-02-06T23:46:17.810Z,79.40
2019-02-06T23:48:46.702Z,79.20
2019-02-06T23:51:15.604Z,79.90
2019-02-06T23:53:44.547Z,79.60
2019-02-06T23:56:13.213Z,80.20
2019-02-06T23:58:41.902Z,80.70
